Jeffersonville, KY (40337)

6:13 PM EDT on September 03, 2015 (GMT -0400)
Old Fogg Pike | | Change Station
CLOSE
Current Station
Personal Weather Station
Location: Mount Sterling, KY
Elevation: 1032 ft
Nearby Weather Stations

Elev 1032 ft 38.03 °N, 83.97 °W | Updated 3 seconds ago

Clear
Clear
89.1 °F
Feels Like 94 °F
N
3.0
Wind Variable Wind from NW
Gusts 3.0 mph

Today
High -- | Low -- °F
--% Chance of Precip.
Yesterday
High -- | Low -- °F
Precip. -- in
7:06 AM 8:02 PM
Waning Gibbous, 66% visible
Pressure 29.98 in
Visibility 10.0 miles
Clouds Clear
Heat Index 94 °F
Dew Point 69 °F
Humidity 52%
Rainfall 0.00 in
Snow Depth Not available.
UV 2 out of 12
Pollen 9.60 out of 12
Air Quality Not available.
Flu Activity Not available.
METAR KIOB 032155Z AUTO 35003KT 10SM CLR 32/18 A2998 RMK AO2
Pressure 29.98 in
Visibility 10.0 miles
Clouds Clear
Heat Index 94 °F
Dew Point 69 °F
Humidity 52%
Rainfall 0.00 in
Snow Depth Not available.
UV 2 out of 12
Pollen 9.60 out of 12
Air Quality Not available.
Flu Activity Not available.
METAR KIOB 032155Z AUTO 35003KT 10SM CLR 32/18 A2998 RMK AO2

10-Day Weather Forecast

×

Almanac

Astronomy

Sep. 03, 2015 Rise Set
Actual Time
Civil Twilight
Nautical Twilight
Astronomical Twilight
Moon
Length of Visible Light
Length of Day
Tomorrow will be .
, % of the Moon is Illuminated

Today's Extremes

State Highs State Lows

Community

WunderPhotos

Upload Photos

1,852,048 photos uploaded!

WunderBlogs® & News

Nearby

Air Quality

  Air Quality AQ Index Pollutant
Not available.

Snow Depth

Station Depth Elevation

Earthquake Activity

City Distance Mag. Time & Date
Minimum magnitude displayed is 2.5.

Coastal Water Temperatures

Place Temperature

Stations

Nearby Weather Stations

Station Location Temp. Windchill Dew Point Humidity Wind Precip. Elev Updated Type